Gary, IN

5:11 PM CST on January 26, 2015 (GMT -0600)
BarringtonRidge | Change Station
CLOSE
Current Station
Personal Weather Station
Location: Hobart, IN
Elevation: 654 ft
Nearby Weather Stations

Elev 654 ft 41.51 °N, 87.25 °W | Updated 2 seconds ago

Overcast
Overcast
25.9 °F
Feels Like 26 °F
N
3.0
Wind Variable Wind from SSE
Gusts 4.1 mph

Today
High -- | Low -- °F
--% Chance of Precip.
Yesterday
High -- | Low -- °F
Precip. -- in
7:06 AM 4:57 PM
Waxing Crescent, 47% visible
Pressure 29.89 in
Visibility 10.0 miles
Clouds Mostly Cloudy 4500 ft
Overcast 8000 ft
Windchill 26 °F
Dew Point 12 °F
Humidity 54%
Rainfall 0.00 in
Snow Depth Not available.
UV 0 out of 12
Pollen .10 out of 12
Air Quality Not available.
Flu Activity Not available.
METAR KGYY 262245Z 15004KT 10SM BKN045 OVC080 M02/M08 A2989

More Conditions Fewer Conditions

Pressure 29.89 in
Visibility 10.0 miles
Clouds Mostly Cloudy 4500 ft
Overcast 8000 ft
Windchill 26 °F
Dew Point 12 °F
Humidity 54%
Rainfall 0.00 in
Snow Depth Not available.
UV 0 out of 12
Pollen .10 out of 12
Air Quality Not available.
Flu Activity Not available.
METAR KGYY 262245Z 15004KT 10SM BKN045 OVC080 M02/M08 A2989

More Conditions Fewer Conditions

10-Day Weather Forecast

Almanac

Astronomy

Jan. 26, 2015 Rise Set
Actual Time
Civil Twilight
Nautical Twilight
Astronomical Twilight
Moon
Length of Visible Light
Length of Day
Tomorrow will be .
, % of the Moon is Illuminated

Today's Extremes

State Highs State Lows

Community

WunderPhotos

Upload Photos

1,790,392 photos uploaded!

WunderBlogs® & News

Nearby

Air Quality

  Air Quality AQ Index Pollutant
Not available.

Snow Depth

Station Depth Elevation

Earthquake Activity

City Distance Mag. Time & Date
Minimum magnitude displayed is 2.5.

Coastal Water Temperatures

Place Temperature

Nearby Weather Stations